Flight Track Log - Related Links

Times and Time Zones

All times are in EDT time to prevent confusion due to time zone crossing. See the DAL1881 flight status page for this flight to view local times or setup timezone preferences in your user account.

Time Position Orientation Groundspeed Altitude Reporting Facility
EDT Latitude Longitude Course Direction KTS MPH feet Rate Location/Type
Sun 04:40:30 PM 39.0500 -84.6833 211° Southwest 148 170 1,800  Level Cincinnati TRACON
Sun 04:41:06 PM 39.0500 -84.7167 270° West 158 182 2,800 2,471 Climbing Cincinnati TRACON
Sun 04:42:12 PM 39.0333 -84.8000 256° West 276 318 6,000 3,100 Climbing Cincinnati TRACON
Sun 04:43:00 PM 38.7367 -84.7740 212° Southwest  Level FlightAware Approximate
Sun 04:43:06 PM 38.9667 -84.8333 201° Southwest 268 308 9,000  Level Cincinnati TRACON
Sun 04:44:00 PM 38.6470 -84.8449 211° Southwest  Level FlightAware Approximate
Sun 04:44:26 PM 38.8592 -84.8625 192° South 312 359 11,300  Level Indianapolis Center
Sun 04:45:00 PM 38.5570 -84.9150 211° Southwest  Level FlightAware Approximate
Sun 04:45:28 PM 38.7564 -84.8942 194° South 371 427 13,100  Level Indianapolis Center
Sun 04:46:29 PM 38.6258 -84.9350 194° South 406 467 15,900 2,488 Climbing Indianapolis Center
Sun 04:47:31 PM 38.5111 -84.9697 193° South 419 482 18,200 1,500 Climbing Indianapolis Center
Sun 04:48:33 PM 38.4036 -85.0331 205° Southwest 424 488 19,000 1,016 Climbing Indianapolis Center
Sun 04:49:35 PM 38.3133 -85.1231 218° Southwest 413 475 20,300 1,452 Climbing Indianapolis Center
Sun 04:50:37 PM 38.2258 -85.2103 218° Southwest 418 481 22,000 1,790 Climbing Indianapolis Center
Sun 04:51:39 PM 38.1300 -85.3036 217° Southwest 428 493 24,000 1,887 Climbing Indianapolis Center
Sun 04:52:41 PM 38.0156 -85.4172 218° Southwest 431 496 25,900 2,226 Climbing Indianapolis Center
Sun 04:53:43 PM 37.9258 -85.5153 221° Southwest 428 493 28,600 2,081 Climbing Indianapolis Center
Sun 04:54:45 PM 37.8956 -85.6372 253° West 370 426 30,200 1,452 Climbing Indianapolis Center
Sun 04:55:47 PM 37.8683 -85.7597 254° West 359 413 31,600 1,065 Climbing Indianapolis Center
Sun 04:56:49 PM 37.8411 -85.8831 254° West 361 415 32,400 823 Climbing Indianapolis Center
Sun 04:57:51 PM 37.8128 -86.0042 254° West 359 413 33,300 774 Climbing Indianapolis Center
Sun 04:58:53 PM 37.7250 -86.0842 216° Southwest 391 450 34,000 537 Climbing Indianapolis Center
Sun 04:59:54 PM 37.6161 -86.1322 199° South 408 470 34,400 432 Climbing Indianapolis Center
Sun 05:00:44 PM 37.5075 -86.1819 200° South 414 476 34,800 327 Climbing Memphis Center
Sun 05:01:44 PM 37.4089 -86.2289 201° Southwest 414 476 35,000 100 Climbing Memphis Center
Sun 05:02:44 PM 37.3044 -86.2761 200° South 421 484 35,000  Level Memphis Center
Sun 05:03:44 PM 37.1956 -86.3261 200° South 421 484 35,000  Level Memphis Center
Sun 05:04:44 PM 37.0908 -86.3756 201° Southwest 415 478 35,000  Level Memphis Center
Sun 05:05:44 PM 36.9928 -86.4325 205° Southwest 405 466 35,000  Level Memphis Center
Sun 05:06:44 PM 36.8903 -86.4919 205° Southwest 405 466 35,000  Level Memphis Center
Sun 05:07:44 PM 36.7819 -86.5567 206° Southwest 405 466 35,000  Level Memphis Center
Sun 05:08:44 PM 36.6839 -86.6183 207° Southwest 399 459 35,000  Level Memphis Center
Sun 05:09:45 PM 36.5811 -86.6747 204° Southwest 399 459 35,000  Level Memphis Center
Sun 05:10:44 PM 36.4850 -86.7358 207° Southwest 394 453 35,000  Level Memphis Center
Sun 05:11:44 PM 36.3889 -86.7969 207° Southwest 394 453 35,000  Level Memphis Center
Sun 05:12:44 PM 36.2842 -86.8556 204° Southwest 399 459 35,000  Level Memphis Center
Sun 05:13:44 PM 36.1961 -86.9108 207° Southwest 393 452 35,000  Level Memphis Center
Sun 05:14:44 PM 36.0903 -86.9331 190° South 393 452 35,000 -450 Level Memphis Center
Sun 05:15:44 PM 35.9739 -86.8661 155° Southeast 450 518 34,100 -496 Descending Memphis Center
Sun 05:18:46 PM 35.6611 -86.5564 141° Southeast 493 567 33,000 -273 Descending Atlanta Center
Sun 05:19:46 PM 35.5467 -86.4456 142° Southeast 485 558 33,000  Level Atlanta Center
Sun 05:20:46 PM 35.4442 -86.3433 141° Southeast 485 558 33,000  Level Atlanta Center
Sun 05:21:46 PM 35.3417 -86.2436 142° Southeast 478 550 33,000 -800 Level Atlanta Center
Sun 05:22:46 PM 35.2372 -86.1442 142° Southeast 483 556 31,400 -1,400 Descending Atlanta Center
Sun 05:23:46 PM 35.1428 -86.0503 141° Southeast 483 556 30,200 -1,200 Descending Atlanta Center
Sun 05:24:46 PM 35.0336 -85.9514 143° Southeast 483 556 29,000 -1,350 Descending Atlanta Center
Sun 05:25:46 PM 34.9247 -85.8450 141° Southeast 488 562 27,500 -1,300 Descending Atlanta Center
Sun 05:26:46 PM 34.8197 -85.7467 142° Southeast 488 562 26,400 -1,300 Descending Atlanta Center
Sun 05:27:46 PM 34.7186 -85.6561 144° Southeast 474 545 24,900 -1,200 Descending Atlanta Center
Sun 05:28:46 PM 34.6106 -85.6236 166° South 430 495 24,000 -1,150 Descending Atlanta Center
Sun 05:29:46 PM 34.5111 -85.5639 154° Southeast 409 471 22,600 -2,100 Descending Atlanta Center
Sun 05:30:46 PM 34.4289 -85.4567 133° Southeast 409 471 19,800 -2,400 Descending Atlanta Center
Sun 05:31:46 PM 34.3364 -85.3394 134° Southeast 428 493 17,800 -1,750 Descending Atlanta Center
Sun 05:32:46 PM 34.2558 -85.2375 134° Southeast 428 493 16,300 -1,800 Descending Atlanta Center
Sun 05:33:46 PM 34.1756 -85.1386 134° Southeast 415 478 14,200 -1,150 Descending Atlanta Center
Sun 05:34:46 PM 34.0992 -85.0397 133° Southeast 406 467 14,000 -100 Descending Atlanta Center
Sun 05:35:46 PM 34.0225 -84.9436 134° Southeast 406 467 14,000 -650 Level Atlanta Center
Sun 05:36:46 PM 33.9481 -84.8478 133° Southeast 397 457 12,700 -1,000 Descending Atlanta Center
Sun 05:37:46 PM 33.8736 -84.7544 134° Southeast 392 451 12,000 -457 Descending Atlanta Center
Sun 05:38:18 PM 33.8333 -84.7000 132° Southeast 349 402 12,000  Level Atlanta TRACON
Sun 05:39:18 PM 33.7833 -84.6167 126° Southeast 301 346 12,000 -533 Level Atlanta TRACON
Sun 05:41:18 PM 33.7333 -84.4500 110° East 286 329 10,400 -1,000 Descending Atlanta TRACON
Sun 05:42:18 PM 33.7333 -84.3667 90° East 275 316 9,000 -1,700 Descending Atlanta TRACON
Sun 05:43:18 PM 33.7333 -84.2833 90° East 257 296 7,000 -1,800 Descending Atlanta TRACON
Sun 05:44:18 PM 33.7333 -84.2000 90° East 242 278 5,400 -1,300 Descending Atlanta TRACON
Sun 05:45:18 PM 33.6833 -84.1667 151° Southeast 207 238 4,400 -700 Descending Atlanta TRACON
Sun 05:46:18 PM 33.6500 -84.2000 220° Southwest 178 205 4,000 -400 Descending Atlanta TRACON
Sun 05:47:18 PM 33.6500 -84.2500 270° West 156 180 3,600 -400 Descending Atlanta TRACON

Login

Don't have an account? Register now (free) for customized features, flight alerts, and more!